createdAt,value
2018-02-20T00:01:14.856Z,100209.13
2018-02-20T00:04:16.248Z,100202.17
2018-02-20T00:07:17.595Z,100210.66
2018-02-20T00:10:18.992Z,100217.31
2018-02-20T00:13:20.353Z,100219.95
2018-02-20T00:16:21.686Z,100208.20
2018-02-20T00:19:23.078Z,100199.48
2018-02-20T00:22:24.452Z,100212.40
2018-02-20T00:25:25.782Z,100215.48
2018-02-20T00:28:27.149Z,100205.44
2018-02-20T00:31:29.712Z,100203.59
2018-02-20T00:34:31.181Z,100199.80
2018-02-20T00:37:32.500Z,100194.14
2018-02-20T00:40:33.921Z,100198.94
2018-02-20T00:43:35.262Z,100191.53
2018-02-20T00:46:36.881Z,100191.52
2018-02-20T00:49:38.664Z,100188.05
2018-02-20T00:52:40.358Z,100178.92
2018-02-20T00:55:42.242Z,100183.20
2018-02-20T00:58:44.074Z,100177.50
2018-02-20T01:01:45.419Z,100176.69
2018-02-20T01:04:47.779Z,100174.92
2018-02-20T01:07:50.960Z,100168.38
2018-02-20T01:10:52.416Z,100162.63
2018-02-20T01:13:53.912Z,100171.27
2018-02-20T01:16:56.299Z,100180.87
2018-02-20T01:19:57.959Z,100183.11
2018-02-20T01:22:59.326Z,100183.05
2018-02-20T01:26:00.773Z,100179.06
2018-02-20T01:29:02.835Z,100195.12
2018-02-20T01:32:04.166Z,100188.05
2018-02-20T01:35:05.519Z,100192.33
2018-02-20T01:38:07.720Z,100193.13
2018-02-20T01:41:09.807Z,100203.19
2018-02-20T01:44:11.216Z,100205.44
2018-02-20T01:47:12.538Z,100203.28
2018-02-20T01:50:13.925Z,100205.07
2018-02-20T01:53:15.267Z,100198.44
2018-02-20T01:56:16.635Z,100200.88
2018-02-20T01:59:18.001Z,100204.38
2018-02-20T02:02:20.138Z,100191.70
2018-02-20T02:05:21.495Z,100204.92
2018-02-20T02:08:22.899Z,100215.76
2018-02-20T02:11:24.244Z,100209.75
2018-02-20T02:14:26.346Z,100213.08
2018-02-20T02:17:28.420Z,100212.09
2018-02-20T02:20:29.787Z,100210.78
2018-02-20T02:23:31.116Z,100212.57
2018-02-20T02:26:32.463Z,100204.18
2018-02-20T02:29:33.854Z,100204.62
2018-02-20T02:32:35.251Z,100195.12
2018-02-20T02:35:37.370Z,100185.65
2018-02-20T02:38:38.815Z,100181.14
2018-02-20T02:41:40.209Z,100189.45
2018-02-20T02:44:42.286Z,100195.30
2018-02-20T02:47:43.645Z,100188.85
2018-02-20T02:50:44.989Z,100183.55
2018-02-20T02:53:46.352Z,100191.58
2018-02-20T02:56:47.696Z,100192.20
2018-02-20T02:59:49.057Z,100187.45
2018-02-20T03:02:50.398Z,100186.52
2018-02-20T03:05:51.744Z,100199.26
2018-02-20T03:08:53.162Z,100207.95
2018-02-20T03:11:55.280Z,100210.12
2018-02-20T03:14:56.636Z,100205.02
2018-02-20T03:17:57.977Z,100205.12
2018-02-20T03:20:59.342Z,100209.93
2018-02-20T03:24:00.669Z,100204.33
2018-02-20T03:27:02.790Z,100207.00
2018-02-20T03:30:04.192Z,100202.75
2018-02-20T03:33:05.568Z,100200.16
2018-02-20T03:36:06.935Z,100193.80
2018-02-20T03:39:08.285Z,100211.27
2018-02-20T03:42:09.625Z,100205.98
2018-02-20T03:45:11.052Z,100210.58
2018-02-20T03:48:13.175Z,100210.87
2018-02-20T03:51:14.540Z,100202.30
2018-02-20T03:54:16.595Z,100216.19
2018-02-20T03:57:17.988Z,100215.67
2018-02-20T04:00:19.338Z,100214.30
2018-02-20T04:03:20.714Z,100215.52
2018-02-20T04:06:22.057Z,100216.48
2018-02-20T04:09:24.153Z,100222.65
2018-02-20T04:12:26.250Z,100220.86
2018-02-20T04:15:28.362Z,100220.83
2018-02-20T04:18:29.734Z,100219.39
2018-02-20T04:21:31.869Z,100217.16
2018-02-20T04:24:33.211Z,100218.55
2018-02-20T04:27:35.351Z,100224.14
2018-02-20T04:30:36.691Z,100228.11
2018-02-20T04:33:38.812Z,100226.81
2018-02-20T04:36:40.114Z,100232.53
2018-02-20T04:39:41.489Z,100229.01
2018-02-20T04:42:42.792Z,100240.17
2018-02-20T04:45:44.131Z,100242.62
2018-02-20T04:48:45.487Z,100245.89
2018-02-20T04:51:47.595Z,100233.80
2018-02-20T04:54:49.715Z,100238.05
2018-02-20T04:57:51.053Z,100240.91
2018-02-20T05:00:53.162Z,100248.16
2018-02-20T05:03:55.240Z,100238.66
2018-02-20T05:06:56.590Z,100232.92
2018-02-20T05:09:57.939Z,100232.94
2018-02-20T05:12:59.266Z,100230.28
2018-02-20T05:16:00.603Z,100233.58
2018-02-20T05:19:01.993Z,100237.88
2018-02-20T05:22:03.343Z,100226.56
2018-02-20T05:25:04.726Z,100234.86
2018-02-20T05:28:06.135Z,100243.53
2018-02-20T05:31:07.490Z,100229.67
2018-02-20T05:34:09.614Z,100239.20
2018-02-20T05:37:10.954Z,100231.15
2018-02-20T05:40:12.300Z,100234.16
2018-02-20T05:43:13.634Z,100234.88
2018-02-20T05:46:15.750Z,100226.35
2018-02-20T05:49:17.111Z,100226.90
2018-02-20T05:52:19.216Z,100229.31
2018-02-20T05:55:21.284Z,100236.86
2018-02-20T05:58:22.632Z,100240.64
2018-02-20T06:01:23.998Z,100242.94
2018-02-20T06:04:25.374Z,100237.48
2018-02-20T06:07:26.730Z,100250.99
2018-02-20T06:10:28.810Z,100245.55
2018-02-20T06:13:30.217Z,100248.88
2018-02-20T06:16:32.312Z,100247.85
2018-02-20T06:19:34.423Z,100257.52
2018-02-20T06:22:35.799Z,100264.28
2018-02-20T06:25:37.854Z,100266.57
2018-02-20T06:28:39.262Z,100273.45
2018-02-20T06:31:41.351Z,100272.46
2018-02-20T06:34:42.755Z,100270.64
2018-02-20T06:37:44.118Z,100275.51
2018-02-20T06:40:45.514Z,100277.34
2018-02-20T06:43:47.579Z,100271.80
2018-02-20T06:46:48.964Z,100285.50
2018-02-20T06:49:50.299Z,100291.27
2018-02-20T06:52:51.701Z,100282.14
2018-02-20T06:55:53.049Z,100292.30
2018-02-20T06:58:54.409Z,100286.20
2018-02-20T07:01:56.545Z,100287.19
2018-02-20T07:04:57.902Z,100284.96
2018-02-20T07:07:59.257Z,100284.79
2018-02-20T07:11:00.634Z,100271.52
2018-02-20T07:14:02.001Z,100279.35
2018-02-20T07:17:03.370Z,100310.92
2018-02-20T07:20:04.709Z,100272.56
2018-02-20T07:23:06.051Z,100272.60
2018-02-20T07:26:07.437Z,100274.94
2018-02-20T07:29:08.740Z,100268.50
2018-02-20T07:32:10.830Z,100276.05
2018-02-20T07:35:12.874Z,100280.75
2018-02-20T07:38:14.156Z,100272.06
2018-02-20T07:41:15.484Z,100290.91
2018-02-20T07:44:17.591Z,100279.91
2018-02-20T07:47:19.704Z,100288.19
2018-02-20T07:50:21.036Z,100289.14
2018-02-20T07:53:22.386Z,100297.97
2018-02-20T07:56:23.709Z,100296.59
2018-02-20T07:59:25.419Z,100295.15
2018-02-20T08:02:27.523Z,100308.19
2018-02-20T08:05:28.928Z,100296.67
2018-02-20T08:08:30.212Z,100290.28
2018-02-20T08:11:31.539Z,100286.33
2018-02-20T08:14:32.881Z,100285.53
2018-02-20T08:17:34.244Z,100284.68
2018-02-20T08:20:35.594Z,100292.35
2018-02-20T08:23:37.651Z,100285.58
2018-02-20T08:26:38.955Z,100297.41
2018-02-20T08:29:40.287Z,100298.83
2018-02-20T08:32:41.618Z,100297.36
2018-02-20T08:35:42.928Z,100293.88
2018-02-20T08:38:44.246Z,100300.47
2018-02-20T08:41:45.572Z,100290.34
2018-02-20T08:44:47.643Z,100295.22
2018-02-20T08:47:48.956Z,100295.07
2018-02-20T08:50:50.280Z,100299.91
2018-02-20T08:53:51.571Z,100292.95
2018-02-20T08:56:52.887Z,100299.03
2018-02-20T08:59:54.957Z,100294.30
2018-02-20T09:02:56.241Z,100293.31
2018-02-20T09:05:57.548Z,100290.66
2018-02-20T09:08:58.882Z,100293.40
2018-02-20T09:12:01.137Z,100294.86
2018-02-20T09:15:09.319Z,100292.43
2018-02-20T09:18:10.668Z,100299.59
2018-02-20T09:21:11.979Z,100296.12
2018-02-20T09:24:13.334Z,100297.19
2018-02-20T09:27:14.679Z,100302.86
2018-02-20T09:30:16.758Z,100294.89
2018-02-20T09:33:18.100Z,100293.16
2018-02-20T09:36:19.450Z,100291.60
2018-02-20T09:39:20.759Z,100286.55
2018-02-20T09:42:22.122Z,100273.58
2018-02-20T09:45:23.446Z,100276.19
2018-02-20T09:48:24.764Z,100276.77
2018-02-20T09:51:26.827Z,100280.27
2018-02-20T09:54:28.167Z,100272.48
2018-02-20T09:57:29.522Z,100278.19
2018-02-20T10:00:30.839Z,100279.51
2018-02-20T10:03:32.139Z,100286.91
2018-02-20T10:06:33.455Z,100284.77
2018-02-20T10:09:34.767Z,100288.26
2018-02-20T10:12:36.083Z,100292.62
2018-02-20T10:15:37.388Z,100287.86
2018-02-20T10:18:38.687Z,100278.77
2018-02-20T10:21:40.750Z,100289.30
2018-02-20T10:24:42.086Z,100291.48
2018-02-20T10:27:43.419Z,100285.36
2018-02-20T10:30:44.727Z,100282.73
2018-02-20T10:33:46.055Z,100284.97
2018-02-20T10:36:47.391Z,100291.52
2018-02-20T10:39:48.717Z,100284.98
2018-02-20T10:42:50.024Z,100294.61
2018-02-20T10:45:52.082Z,100291.53
2018-02-20T10:48:54.254Z,100296.33
2018-02-20T10:51:55.599Z,100283.20
2018-02-20T10:54:57.664Z,100288.86
2018-02-20T10:57:58.983Z,100280.03
2018-02-20T11:01:00.346Z,100284.87
2018-02-20T11:04:01.682Z,100290.53
2018-02-20T11:07:03.033Z,100290.22
2018-02-20T11:10:05.134Z,100283.60
2018-02-20T11:13:07.202Z,100283.46
2018-02-20T11:16:08.534Z,100285.94
2018-02-20T11:19:09.874Z,100289.75
2018-02-20T11:22:11.176Z,100283.48
2018-02-20T11:25:12.514Z,100288.88
2018-02-20T11:28:13.847Z,100287.19
2018-02-20T11:31:15.202Z,100299.06
2018-02-20T11:34:17.247Z,100290.38
2018-02-20T11:37:18.607Z,100300.46
2018-02-20T11:40:19.916Z,100295.69
2018-02-20T11:43:21.264Z,100296.58
2018-02-20T11:46:22.592Z,100295.06
2018-02-20T11:49:23.951Z,100294.63
2018-02-20T11:52:25.299Z,100289.21
2018-02-20T11:55:26.668Z,100291.98
2018-02-20T11:58:28.777Z,100284.77
2018-02-20T12:01:30.147Z,100292.06
2018-02-20T12:04:32.201Z,100288.27
2018-02-20T12:07:33.553Z,100286.71
2018-02-20T12:10:34.898Z,100283.53
2018-02-20T12:13:36.981Z,100270.74
2018-02-20T12:16:38.326Z,100275.45
2018-02-20T12:19:39.690Z,100276.05
2018-02-20T12:22:41.054Z,100277.00
2018-02-20T12:25:43.127Z,100274.04
2018-02-20T12:28:44.460Z,100274.61
2018-02-20T12:31:45.790Z,100273.34
2018-02-20T12:34:47.126Z,100281.06
2018-02-20T12:37:48.428Z,100275.69
2018-02-20T12:40:49.789Z,100278.86
2018-02-20T12:43:51.133Z,100276.50
2018-02-20T12:46:52.471Z,100272.48
2018-02-20T12:49:53.806Z,100263.35
2018-02-20T12:52:55.154Z,100265.61
2018-02-20T12:55:57.242Z,100264.24
2018-02-20T12:58:58.567Z,100275.89
2018-02-20T13:01:59.921Z,100271.20
2018-02-20T13:05:02.029Z,100266.73
2018-02-20T13:08:03.365Z,100270.69
2018-02-20T13:11:04.714Z,100263.24
2018-02-20T13:14:06.046Z,100257.55
2018-02-20T13:17:07.366Z,100258.81
2018-02-20T13:20:08.690Z,100257.95
2018-02-20T13:23:10.039Z,100244.27
2018-02-20T13:26:11.369Z,100253.34
2018-02-20T13:29:12.683Z,100264.17
2018-02-20T13:32:14.033Z,100265.23
2018-02-20T13:35:16.183Z,100262.59
2018-02-20T13:38:17.490Z,100267.84
2018-02-20T13:41:18.815Z,100266.48
2018-02-20T13:44:20.158Z,100271.89
2018-02-20T13:47:21.471Z,100269.30
2018-02-20T13:50:22.840Z,100275.42
2018-02-20T13:53:24.936Z,100265.00
2018-02-20T13:56:27.012Z,100267.25
2018-02-20T13:59:28.370Z,100257.05
2018-02-20T14:02:29.750Z,100258.35
2018-02-20T14:05:31.111Z,100261.94
2018-02-20T14:08:32.475Z,100264.36
2018-02-20T14:11:33.807Z,100270.25
2018-02-20T14:14:35.192Z,100276.61
2018-02-20T14:17:36.502Z,100258.14
2018-02-20T14:20:38.560Z,100264.09
2018-02-20T14:23:39.868Z,100268.05
2018-02-20T14:26:41.219Z,100262.54
2018-02-20T14:29:43.323Z,100245.83
2018-02-20T14:32:44.676Z,100250.27
2018-02-20T14:35:45.975Z,100255.88
2018-02-20T14:38:47.315Z,100263.72
2018-02-20T14:41:48.630Z,100256.80
2018-02-20T14:44:50.143Z,100259.10
2018-02-20T14:47:51.453Z,100253.73
2018-02-20T14:50:53.064Z,100256.52
2018-02-20T14:53:54.398Z,100266.50
2018-02-20T14:56:56.468Z,100263.91
2018-02-20T14:59:57.839Z,100264.91
2018-02-20T15:03:00.158Z,100268.33
2018-02-20T15:06:01.492Z,100275.46
2018-02-20T15:09:02.844Z,100281.05
2018-02-20T15:12:04.900Z,100276.75
2018-02-20T15:15:06.209Z,100270.11
2018-02-20T15:18:07.520Z,100271.43
2018-02-20T15:21:08.850Z,100281.61
2018-02-20T15:24:10.487Z,100288.95
2018-02-20T15:27:11.819Z,100288.84
2018-02-20T15:30:13.103Z,100283.74
2018-02-20T15:33:14.448Z,100283.61
2018-02-20T15:36:15.756Z,100286.69
2018-02-20T15:39:24.123Z,100292.83
2018-02-20T15:42:25.440Z,100295.25
2018-02-20T15:45:26.759Z,100289.55
2018-02-20T15:48:28.802Z,100303.02
2018-02-20T15:51:30.157Z,100294.35
2018-02-20T15:54:31.489Z,100306.08
2018-02-20T15:57:32.838Z,100303.06
2018-02-20T16:00:34.907Z,100304.08
2018-02-20T16:03:36.248Z,100307.16
2018-02-20T16:06:37.587Z,100313.30
2018-02-20T16:09:39.644Z,100318.91
2018-02-20T16:12:40.994Z,100314.14
2018-02-20T16:15:43.139Z,100318.91
2018-02-20T16:18:44.469Z,100323.33
2018-02-20T16:21:45.831Z,100314.17
2018-02-20T16:24:47.920Z,100319.39
2018-02-20T16:27:50.005Z,100314.23
2018-02-20T16:30:51.363Z,100331.35
2018-02-20T16:33:52.718Z,100344.44
2018-02-20T16:36:54.051Z,100347.95
2018-02-20T16:40:02.486Z,100354.06
2018-02-20T16:43:03.858Z,100346.18
2018-02-20T16:46:05.155Z,100346.20
2018-02-20T16:49:06.464Z,100352.34
2018-02-20T16:52:08.568Z,100351.88
2018-02-20T16:55:09.910Z,100354.52
2018-02-20T16:58:11.357Z,100363.27
2018-02-20T17:01:12.831Z,100371.22
2018-02-20T17:04:14.212Z,100369.03
2018-02-20T17:07:15.579Z,100379.55
2018-02-20T17:10:16.955Z,100375.60
2018-02-20T17:13:18.413Z,100374.69
2018-02-20T17:16:20.692Z,100394.86
2018-02-20T17:19:22.060Z,100382.17
2018-02-20T17:22:23.532Z,100398.77
2018-02-20T17:25:24.893Z,100405.33
2018-02-20T17:28:26.370Z,100410.19
2018-02-20T17:31:27.716Z,100417.20
2018-02-20T17:34:29.610Z,100416.33
2018-02-20T17:37:31.447Z,100418.95
2018-02-20T17:40:32.835Z,100431.22
2018-02-20T17:43:34.620Z,100422.89
2018-02-20T17:46:36.294Z,100434.27
2018-02-20T17:49:37.770Z,100440.38
2018-02-20T17:52:39.448Z,100439.41
2018-02-20T17:55:41.875Z,100441.14
2018-02-20T18:01:51.402Z,100438.86
2018-02-20T18:04:53.219Z,100441.50
2018-02-20T18:07:54.769Z,100445.34
2018-02-20T18:10:56.358Z,100454.03
2018-02-20T18:13:57.871Z,100455.75
2018-02-20T18:16:59.531Z,100464.45
2018-02-20T18:20:01.196Z,100453.41
2018-02-20T18:23:02.882Z,100464.82
2018-02-20T18:26:04.545Z,100459.56
2018-02-20T18:29:05.906Z,100466.99
2018-02-20T18:32:07.312Z,100468.66
2018-02-20T18:35:09.123Z,100473.49
2018-02-20T18:38:10.948Z,100489.16
2018-02-20T18:41:12.296Z,100473.88
2018-02-20T18:44:13.643Z,100475.66
2018-02-20T18:47:15.136Z,100489.48
2018-02-20T18:50:16.491Z,100494.20
2018-02-20T18:53:17.835Z,100489.03
2018-02-20T18:56:19.585Z,100489.90
2018-02-20T18:59:20.960Z,100495.58
2018-02-20T19:02:22.297Z,100492.84
2018-02-20T19:05:24.409Z,100489.61
2018-02-20T19:08:33.817Z,100478.66
2018-02-20T19:11:35.226Z,100489.58
2018-02-20T19:14:36.540Z,100493.23
2018-02-20T19:17:38.171Z,100502.70
2018-02-20T19:20:40.739Z,100512.22
2018-02-20T19:23:42.888Z,100511.23
2018-02-20T19:26:44.238Z,100512.38
2018-02-20T19:29:45.643Z,100501.73
2018-02-20T19:32:47.690Z,100507.35
2018-02-20T19:35:49.036Z,100522.21
2018-02-20T19:38:51.326Z,100523.32
2018-02-20T19:41:52.675Z,100529.83
2018-02-20T19:44:54.016Z,100529.08
2018-02-20T19:47:55.680Z,100529.28
2018-02-20T19:50:57.015Z,100528.94
2018-02-20T19:53:58.369Z,100534.14
2018-02-20T19:56:59.747Z,100530.95
2018-02-20T20:00:01.836Z,100480.15
2018-02-20T20:03:03.958Z,100535.89
2018-02-20T20:06:05.318Z,100545.12
2018-02-20T20:09:06.679Z,100540.23
2018-02-20T20:12:08.029Z,100545.25
2018-02-20T20:15:10.077Z,100548.89
2018-02-20T20:18:12.286Z,100563.80
2018-02-20T20:21:13.620Z,100559.78
2018-02-20T20:24:14.944Z,100560.31
2018-02-20T20:27:16.300Z,100549.56
2018-02-20T20:33:25.824Z,100553.36
2018-02-20T20:36:27.189Z,100563.39
2018-02-20T20:39:29.299Z,100573.91
2018-02-20T20:42:30.606Z,100568.92
2018-02-20T20:45:31.953Z,100576.82
2018-02-20T20:48:34.004Z,100579.80
2018-02-20T20:51:35.777Z,100587.20
2018-02-20T20:54:37.139Z,100577.55
2018-02-20T20:57:38.471Z,100583.20
2018-02-20T21:00:39.799Z,100590.59
2018-02-20T21:03:41.088Z,100585.06
2018-02-20T21:06:42.586Z,100595.83
2018-02-20T21:09:44.163Z,100600.59
2018-02-20T21:12:45.998Z,100590.03
2018-02-20T21:15:47.328Z,100591.80
2018-02-20T21:18:48.701Z,100600.02
2018-02-20T21:21:50.002Z,100600.90
2018-02-20T21:24:51.489Z,100617.75
2018-02-20T21:27:52.776Z,100613.73
2018-02-20T21:30:54.099Z,100610.00
2018-02-20T21:33:56.188Z,100620.56
2018-02-20T21:36:58.270Z,100620.70
2018-02-20T21:39:59.664Z,100627.48
2018-02-20T21:43:01.084Z,100625.89
2018-02-20T21:46:02.401Z,100637.37
2018-02-20T21:49:03.749Z,100631.07
2018-02-20T21:52:05.066Z,100636.98
2018-02-20T21:55:06.488Z,100640.19
2018-02-20T21:58:08.580Z,100649.26
2018-02-20T22:01:10.622Z,100644.25
2018-02-20T22:04:11.937Z,100650.41
2018-02-20T22:07:13.272Z,100647.13
2018-02-20T22:10:14.647Z,100614.99
2018-02-20T22:13:15.963Z,100635.58
2018-02-20T22:20:22.281Z,100627.56
2018-02-20T22:23:24.131Z,100645.95
2018-02-20T22:26:25.589Z,100655.21
2018-02-20T22:29:26.923Z,100653.90
2018-02-20T22:32:28.373Z,100656.31
2018-02-20T22:35:29.774Z,100653.34
2018-02-20T22:38:31.926Z,100640.05
2018-02-20T22:41:33.401Z,100660.73
2018-02-20T22:44:34.731Z,100668.83
2018-02-20T22:47:36.875Z,100673.00
2018-02-20T22:50:38.210Z,100666.70
2018-02-20T22:53:40.291Z,100681.02
2018-02-20T22:56:41.625Z,100689.45
2018-02-20T22:59:44.364Z,100696.51
2018-02-20T23:02:49.226Z,100702.41
2018-02-20T23:05:50.666Z,100701.86
2018-02-20T23:08:52.017Z,100714.84
2018-02-20T23:11:53.830Z,100718.27
2018-02-20T23:14:55.960Z,100722.63
2018-02-20T23:17:57.343Z,100711.49
2018-02-20T23:20:59.266Z,100724.83
2018-02-20T23:24:00.816Z,100702.19
2018-02-20T23:27:02.164Z,100722.80
2018-02-20T23:30:03.509Z,100734.41
2018-02-20T23:33:05.403Z,100730.39
2018-02-20T23:36:06.741Z,100745.41
2018-02-20T23:39:08.909Z,100743.91
2018-02-20T23:42:12.434Z,100735.80
2018-02-20T23:45:14.529Z,100733.50
2018-02-20T23:48:15.855Z,100746.14
2018-02-20T23:51:23.652Z,100756.38
2018-02-20T23:54:27.153Z,100751.73
2018-02-20T23:57:28.596Z,100751.52
